Observation data for Jayton on 06/20/2019      Previous  Date  Next       Current Mesonet Observations  Soil Data  Daily Summary Page  Observations in Plain Language
KJTS 200500Z 13006KT 23/19 A298 RMK A01 T02330194  RH  083%=      5-min Rain = 0
KJTS 200505Z 12006KT 24/19 A298 RMK A01 T02350194  RH  082%=      5-min Rain = 0
KJTS 200510Z 11007KT 23/19 A298 RMK A01 T02330194  RH  083%=      5-min Rain = 0
KJTS 200515Z 12007KT 23/19 A298 RMK A01 T02300194  RH  085%=      5-min Rain = 0
KJTS 200520Z 12005KT 23/19 A2979 RMK A01 T02300194  RH  085%=      5-min Rain = 0
KJTS 200525Z 13005KT 23/19 A298 RMK A01 T02300194  RH  085%=      5-min Rain = 0
KJTS 200530Z 12004KT 23/19 A298 RMK A01 T02300194  RH  084%=      5-min Rain = 0
KJTS 200535Z 12005KT 23/19 A298 RMK A01 T02310194  RH  084%=      5-min Rain = 0
KJTS 200540Z 12006KT 23/19 A298 RMK A01 T02290194  RH  086%=      5-min Rain = 0
KJTS 200545Z 13004KT 23/20 A298 RMK A01 T02280195  RH  086%=      5-min Rain = 0
KJTS 200550Z 12003KT 23/20 A298 RMK A01 T02290196  RH  086%=      5-min Rain = 0
KJTS 200555Z 13005KT 23/20 A298 RMK A01 T02290196  RH  086%=      5-min Rain = 0
KJTS 200600Z 12004KT 23/19 A298 RMK A01 T02260194  RH  087%=      5-min Rain = 0
KJTS 200605Z 12004KT 22/20 A298 RMK A01 T02230195  RH  089%=      5-min Rain = 0
KJTS 200610Z 12003KT 22/20 A298 RMK A01 T02230195  RH  089%=      5-min Rain = 0
KJTS 200615Z 10003KT 22/20 A298 RMK A01 T02240196  RH  089%=      5-min Rain = 0
KJTS 200620Z 11004KT 22/19 A2981 RMK A01 T02190192  RH  089%=      5-min Rain = 0
KJTS 200625Z 14004KT 22/19 A2981 RMK A01 T02180194  RH  091%=      5-min Rain = 0
KJTS 200630Z 13004KT 22/20 A298 RMK A01 T02210195  RH  090%=      5-min Rain = 0
KJTS 200635Z 13004KT 22/19 A298 RMK A01 T02230194  RH  089%=      5-min Rain = 0
KJTS 200640Z 14004KT 22/19 A298 RMK A01 T02230194  RH  088%=      5-min Rain = 0
KJTS 200645Z 14004KT 22/19 A298 RMK A01 T02220193  RH  089%=      5-min Rain = 0
KJTS 200650Z 13003KT 22/19 A298 RMK A01 T02190193  RH  090%=      5-min Rain = 0
KJTS 200655Z 14003KT 22/19 A298 RMK A01 T02200193  RH  090%=      5-min Rain = 0
KJTS 200700Z 13004KT 22/19 A298 RMK A01 T02170191  RH  090%=      5-min Rain = 0
KJTS 200705Z 12005KT 21/19 A298 RMK A01 T02130189  RH  091%=      5-min Rain = 0
KJTS 200710Z 13004KT 21/19 A298 RMK A01 T02140188  RH  090%=      5-min Rain = 0
KJTS 200715Z 14004KT 22/19 A298 RMK A01 T02170187  RH  088%=      5-min Rain = 0
KJTS 200720Z 11004KT 22/19 A2979 RMK A01 T02190187  RH  087%=      5-min Rain = 0
KJTS 200725Z 10005KT 22/18 A2979 RMK A01 T02150184  RH  087%=      5-min Rain = 0
KJTS 200730Z 11005KT 21/18 A2979 RMK A01 T02110182  RH  088%=      5-min Rain = 0
KJTS 200735Z 13005KT 21/18 A2979 RMK A01 T02100180  RH  087%=      5-min Rain = 0
KJTS 200740Z 10004KT 21/18 A2979 RMK A01 T02080179  RH  088%=      5-min Rain = 0
KJTS 200745Z 07005KT 21/18 A2979 RMK A01 T02120183  RH  088%=      5-min Rain = 0
KJTS 200750Z 07005KT 21/19 A2978 RMK A01 T02130185  RH  089%=      5-min Rain = 0
KJTS 200755Z 09005KT 21/18 A2978 RMK A01 T02120184  RH  089%=      5-min Rain = 0
KJTS 200800Z 08004KT 21/18 A2978 RMK A01 T02090183  RH  090%=      5-min Rain = 0
KJTS 200805Z 08006KT 21/18 A2978 RMK A01 T02130183  RH  088%=      5-min Rain = 0
KJTS 200810Z 10006KT 21/18 A2978 RMK A01 T02120180  RH  087%=      5-min Rain = 0
KJTS 200815Z 10005KT 21/18 A2978 RMK A01 T02080180  RH  088%=      5-min Rain = 0
KJTS 200820Z 10005KT 20/18 A2978 RMK A01 T02040179  RH  091%=      5-min Rain = 0
KJTS 200825Z 10004KT 20/18 A2978 RMK A01 T02010180  RH  092%=      5-min Rain = 0
KJTS 200830Z 10004KT 20/18 A2978 RMK A01 T02010179  RH  092%=      5-min Rain = 0
KJTS 200835Z 09005KT 20/18 A2977 RMK A01 T02030181  RH  091%=      5-min Rain = 0
KJTS 200840Z 09006KT 21/18 A2977 RMK A01 T02060179  RH  089%=      5-min Rain = 0
KJTS 200845Z 09005KT 20/18 A2977 RMK A01 T02040179  RH  090%=      5-min Rain = 0
KJTS 200850Z 09006KT 20/18 A2977 RMK A01 T02040179  RH  090%=      5-min Rain = 0
KJTS 200855Z 09006KT 20/18 A2977 RMK A01 T02030180  RH  091%=      5-min Rain = 0
KJTS 200900Z 09007KT 21/18 A2977 RMK A01 T02060182  RH  091%=      5-min Rain = 0
KJTS 200905Z 10006KT 21/18 A2977 RMK A01 T02070182  RH  090%=      5-min Rain = 0
KJTS 200910Z 12006KT 21/18 A2976 RMK A01 T02080180  RH  088%=      5-min Rain = 0
KJTS 200915Z 13007KT 21/18 A2976 RMK A01 T02090177  RH  086%=      5-min Rain = 0
KJTS 200920Z 14006KT 21/17 A2977 RMK A01 T02110174  RH  084%=      5-min Rain = 0
KJTS 200925Z 14006KT 21/17 A2976 RMK A01 T02120173  RH  082%=      5-min Rain = 0
KJTS 200930Z 14007KT 21/17 A2976 RMK A01 T02110172  RH  082%=      5-min Rain = 0
KJTS 200935Z 14006KT 21/17 A2976 RMK A01 T02100172  RH  083%=      5-min Rain = 0
KJTS 200940Z 15005KT 21/17 A2976 RMK A01 T02110171  RH  082%=      5-min Rain = 0
KJTS 200945Z 15005KT 21/17 A2976 RMK A01 T02120171  RH  082%=      5-min Rain = 0
KJTS 200950Z 15005KT 21/17 A2976 RMK A01 T02100171  RH  083%=      5-min Rain = 0
KJTS 200955Z 16005KT 21/17 A2976 RMK A01 T02080171  RH  084%=      5-min Rain = 0
KJTS 201000Z 17006KT 21/17 A2976 RMK A01 T02070171  RH  084%=      5-min Rain = 0
KJTS 201005Z 17006KT 20/17 A2976 RMK A01 T02040170  RH  085%=      5-min Rain = 0
KJTS 201010Z 18006KT 20/17 A2977 RMK A01 T02030169  RH  085%=      5-min Rain = 0
KJTS 201015Z 17007KT 20/17 A2976 RMK A01 T02010169  RH  086%=      5-min Rain = 0
KJTS 201020Z 16007KT 20/17 A2976 RMK A01 T02020169  RH  085%=      5-min Rain = 0
KJTS 201025Z 16005KT 21/17 A2976 RMK A01 T02050169  RH  084%=      5-min Rain = 0
KJTS 201030Z 16006KT 20/17 A2976 RMK A01 T02040170  RH  085%=      5-min Rain = 0
KJTS 201035Z 15007KT 20/17 A2975 RMK A01 T02020170  RH  086%=      5-min Rain = 0
KJTS 201040Z 15006KT 20/17 A2975 RMK A01 T02010170  RH  087%=      5-min Rain = 0
KJTS 201045Z 16005KT 20/17 A2976 RMK A01 T02030170  RH  086%=      5-min Rain = 0
KJTS 201050Z 18004KT 20/17 A2976 RMK A01 T02040171  RH  085%=      5-min Rain = 0
KJTS 201055Z 15006KT 20/17 A2976 RMK A01 T02020170  RH  086%=      5-min Rain = 0
KJTS 201100Z 16004KT 20/17 A2976 RMK A01 T02000171  RH  087%=      5-min Rain = 0
KJTS 201105Z 29002KT 20/17 A2976 RMK A01 T02000170  RH  087%=      5-min Rain = 0
KJTS 201110Z 16003KT 20/17 A2976 RMK A01 T01980170  RH  088%=      5-min Rain = 0
KJTS 201115Z 18003KT 20/17 A2976 RMK A01 T02000170  RH  087%=      5-min Rain = 0
KJTS 201120Z 24005KT 20/17 A2976 RMK A01 T01980169  RH  088%=      5-min Rain = 0
KJTS 201125Z 20004KT 20/17 A2975 RMK A01 T01960170  RH  089%=      5-min Rain = 0
KJTS 201130Z 19006KT 20/17 A2975 RMK A01 T01980170  RH  088%=      5-min Rain = 0
KJTS 201135Z 19007KT 20/17 A2974 RMK A01 T02000170  RH  087%=      5-min Rain = 0
KJTS 201140Z 19006KT 20/17 A2975 RMK A01 T02000170  RH  087%=      5-min Rain = 0
KJTS 201145Z 23004KT 20/17 A2975 RMK A01 T01980169  RH  088%=      5-min Rain = 0
KJTS 201150Z 30006KT 19/17 A2976 RMK A01 T01930168  RH  090%=      5-min Rain = 0
KJTS 201155Z 30006KT 19/17 A2976 RMK A01 T01890169  RH  092%=      5-min Rain = 0
KJTS 201200Z 30005KT 19/17 A2976 RMK A01 T01920170  RH  092%=      5-min Rain = 0
KJTS 201205Z 31004KT 19/17 A2976 RMK A01 T01940170  RH  091%=      5-min Rain = 0
KJTS 201210Z 32005KT 19/17 A2976 RMK A01 T01930171  RH  092%=      5-min Rain = 0
KJTS 201215Z 30007KT 20/17 A2977 RMK A01 T01960173  RH  091%=      5-min Rain = 0
KJTS 201220Z 29005KT 20/17 A2977 RMK A01 T02010174  RH  089%=      5-min Rain = 0
KJTS 201225Z 32005KT 20/18 A2977 RMK A01 T02030175  RH  088%=      5-min Rain = 0
KJTS 201230Z 02004KT 21/18 A2977 RMK A01 T02050176  RH  088%=      5-min Rain = 0
KJTS 201235Z 04003KT 21/18 A2977 RMK A01 T02110177  RH  086%=      5-min Rain = 0
KJTS 201240Z 04003KT 21/18 A2977 RMK A01 T02120178  RH  085%=      5-min Rain = 0
KJTS 201245Z 11002KT 22/18 A2977 RMK A01 T02150180  RH  085%=      5-min Rain = 0
KJTS 201250Z 11001KT 22/18 A2977 RMK A01 T02180182  RH  085%=      5-min Rain = 0
KJTS 201255Z 35002KT 22/18 A2977 RMK A01 T02210182  RH  083%=      5-min Rain = 0
KJTS 201300Z 07003KT 22/18 A2977 RMK A01 T02240184  RH  082%=      5-min Rain = 0
KJTS 201305Z 13003KT 23/19 A2977 RMK A01 T02280185  RH  081%=      5-min Rain = 0
KJTS 201310Z 18002KT 23/18 A2977 RMK A01 T02320184  RH  079%=      5-min Rain = 0
KJTS 201315Z 18003KT 23/18 A2977 RMK A01 T02330184  RH  078%=      5-min Rain = 0
KJTS 201320Z 19004KT 23/18 A2977 RMK A01 T02340184  RH  078%=      5-min Rain = 0
KJTS 201325Z 20005KT 23/19 A2977 RMK A01 T02340185  RH  078%=      5-min Rain = 0
KJTS 201330Z 21006KT 24/19 A2977 RMK A01 T02350186  RH  078%=      5-min Rain = 0
KJTS 201335Z 20007KT 24/19 A2977 RMK A01 T02360186  RH  078%=      5-min Rain = 0
KJTS 201340Z 20006KT 24/19 A2977 RMK A01 T02380189  RH  078%=      5-min Rain = 0
KJTS 201350Z 21008KT 24/19 A2977 RMK A01 T02400189  RH  077%=      5-min Rain = 0
KJTS 201355Z 21007KT 24/19 A2977 RMK A01 T02420190  RH  077%=      5-min Rain = 0
KJTS 201400Z 21007KT 25/19 A2977 RMK A01 T02450192  RH  076%=      5-min Rain = 0
KJTS 201405Z 21008KT 25/19 A2977 RMK A01 T02490192  RH  075%=      5-min Rain = 0
KJTS 201410Z 21008KT 25/19 A2977 RMK A01 T02510193  RH  074%=      5-min Rain = 0
KJTS 201415Z 21008KT 25/19 A2977 RMK A01 T02530191  RH  072%=      5-min Rain = 0
KJTS 201420Z 22008KT 26/19 A2977 RMK A01 T02570192  RH  072%=      5-min Rain = 0
KJTS 201425Z 22008KT 26/19 A2977 RMK A01 T02610194  RH  070%=      5-min Rain = 0
KJTS 201430Z 22008KT 26/19 A2977 RMK A01 T02620190  RH  068%=      5-min Rain = 0
KJTS 201435Z 23007KT 26/19 A2977 RMK A01 T02640194  RH  069%=      5-min Rain = 0
KJTS 201440Z 22007KT 27/19 A2977 RMK A01 T02680192  RH  067%=      5-min Rain = 0
KJTS 201445Z 24005KT 27/19 A2978 RMK A01 T02710189  RH  064%=      5-min Rain = 0
KJTS 201450Z 28003KT 28/19 A2978 RMK A01 T02750191  RH  064%=      5-min Rain = 0
KJTS 201455Z 25003KT 28/19 A2978 RMK A01 T02770188  RH  062%=      5-min Rain = 0
KJTS 201500Z 24007KT 28/18 A2978 RMK A01 T02810181  RH  058%=      5-min Rain = 0
KJTS 201505Z 24007KT 28/18 A2978 RMK A01 T02840177  RH  055%=      5-min Rain = 0
KJTS 201510Z 26006KT 29/18 A2978 RMK A01 T02870178  RH  055%=      5-min Rain = 0
KJTS 201515Z 31004KT 29/19 A2978 RMK A01 T02860192  RH  060%=      5-min Rain = 0
KJTS 201520Z 32005KT 29/20 A2978 RMK A01 T02870197  RH  062%=      5-min Rain = 0
KJTS 201525Z 31005KT 29/19 A2978 RMK A01 T02900192  RH  059%=      5-min Rain = 0
KJTS 201530Z 30006KT 29/18 A2978 RMK A01 T02920184  RH  055%=      5-min Rain = 0
KJTS 201535Z 30006KT 29/18 A2978 RMK A01 T02900184  RH  056%=      5-min Rain = 0
KJTS 201540Z 29005KT 29/18 A2978 RMK A01 T02930184  RH  055%=      5-min Rain = 0
KJTS 201545Z 28003KT 30/18 A2977 RMK A01 T02960183  RH  054%=      5-min Rain = 0
KJTS 201550Z 27004KT 30/18 A2977 RMK A01 T03000184  RH  053%=      5-min Rain = 0
KJTS 201555Z 27004KT 30/18 A2977 RMK A01 T03010181  RH  051%=      5-min Rain = 0
KJTS 201600Z 27004KT 31/18 A2977 RMK A01 T03050180  RH  050%=      5-min Rain = 0
KJTS 201605Z 27006KT 30/17 A2977 RMK A01 T03040174  RH  048%=      5-min Rain = 0
KJTS 201610Z 26005KT 31/17 A2977 RMK A01 T03080174  RH  047%=      5-min Rain = 0
KJTS 201615Z 26005KT 31/17 A2977 RMK A01 T03100171  RH  046%=      5-min Rain = 0
KJTS 201620Z 26005KT 31/17 A2977 RMK A01 T03120172  RH  045%=      5-min Rain = 0
KJTS 201625Z 25005KT 32/17 A2977 RMK A01 T03150171  RH  044%=      5-min Rain = 0
KJTS 201630Z 25005KT 32/17 A2977 RMK A01 T03170165  RH  042%=      5-min Rain = 0
KJTS 201635Z 26005KT 32/16 A2978 RMK A01 T03210161  RH  040%=      5-min Rain = 0
KJTS 201640Z 22004KT 32/16 A2978 RMK A01 T03240161  RH  039%=      5-min Rain = 0
KJTS 201645Z 20003KT 33/16 A2978 RMK A01 T03270162  RH  039%=      5-min Rain = 0
KJTS 201650Z 21003KT 33/16 A2978 RMK A01 T03320162  RH  038%=      5-min Rain = 0
KJTS 201655Z 21003KT 33/16 A2978 RMK A01 T03340157  RH  036%=      5-min Rain = 0
KJTS 201700Z 22006G13KT 34/14 A2978 RMK A01 T03380142  RH  032%=      5-min Rain = 0
KJTS 201705Z 23004KT 34/15 A2978 RMK A01 T03390146  RH  033%=      5-min Rain = 0
KJTS 201710Z 23006KT 34/14 A2977 RMK A01 T03420139  RH  031%=      5-min Rain = 0
KJTS 201715Z 22009KT 35/13 A2977 RMK A01 T03450133  RH  029%=      5-min Rain = 0
KJTS 201720Z 22008KT 35/13 A2977 RMK A01 T03450131  RH  029%=      5-min Rain = 0
KJTS 201725Z 21010KT 35/12 A2977 RMK A01 T03480120  RH  026%=      5-min Rain = 0
KJTS 201730Z 20010KT 35/12 A2977 RMK A01 T03500120  RH  026%=      5-min Rain = 0
KJTS 201735Z 19009KT 35/12 A2977 RMK A01 T03520120  RH  026%=      5-min Rain = 0
KJTS 201740Z 19006KT 35/13 A2977 RMK A01 T03540132  RH  028%=      5-min Rain = 0
KJTS 201745Z 20009KT 35/12 A2977 RMK A01 T03530118  RH  025%=      5-min Rain = 0
KJTS 201750Z 20007KT 35/13 A2977 RMK A01 T03540128  RH  027%=      5-min Rain = 0
KJTS 201755Z 19006KT 36/13 A2977 RMK A01 T03560132  RH  027%=      5-min Rain = 0
KJTS 201800Z 20006KT 36/13 A2977 RMK A01 T03580133  RH  027%=      5-min Rain = 0
KJTS 201805Z 19008KT 36/13 A2977 RMK A01 T03590127  RH  026%=      5-min Rain = 0
KJTS 201810Z 18008KT 36/13 A2977 RMK A01 T03600129  RH  026%=      5-min Rain = 0
KJTS 201815Z 17007KT 36/14 A2977 RMK A01 T03600140  RH  028%=      5-min Rain = 0
KJTS 201820Z 19007KT 36/14 A2977 RMK A01 T03600143  RH  029%=      5-min Rain = 0
KJTS 201825Z 18005KT 36/15 A2977 RMK A01 T03620146  RH  029%=      5-min Rain = 0
KJTS 201830Z 19007G12KT 36/15 A2977 RMK A01 T03640147  RH  029%=      5-min Rain = 0
KJTS 201835Z 18008KT 36/14 A2977 RMK A01 T03630144  RH  028%=      5-min Rain = 0
KJTS 201840Z 19008KT 36/14 A2976 RMK A01 T03630142  RH  028%=      5-min Rain = 0
KJTS 201845Z 18007KT 37/15 A2976 RMK A01 T03650151  RH  029%=      5-min Rain = 0
KJTS 201850Z 18008KT 37/16 A2976 RMK A01 T03650158  RH  031%=      5-min Rain = 0
KJTS 201855Z 17008G13KT 36/17 A2976 RMK A01 T03640167  RH  033%=      5-min Rain = 0
KJTS 201900Z 19009KT 36/15 A2976 RMK A01 T03640153  RH  030%=      5-min Rain = 0
KJTS 201905Z 19008KT 37/16 A2976 RMK A01 T03660158  RH  031%=      5-min Rain = 0
KJTS 201910Z 19009G14KT 37/16 A2976 RMK A01 T03650155  RH  030%=      5-min Rain = 0
KJTS 201915Z 19009KT 37/16 A2975 RMK A01 T03670155  RH  030%=      5-min Rain = 0
KJTS 201920Z 20009KT 37/15 A2975 RMK A01 T03690150  RH  029%=      5-min Rain = 0
KJTS 201925Z 19008KT 37/15 A2975 RMK A01 T03690152  RH  029%=      5-min Rain = 0
KJTS 201930Z 18009KT 37/15 A2975 RMK A01 T03710151  RH  028%=      5-min Rain = 0
KJTS 201935Z 17007KT 37/15 A2975 RMK A01 T03740150  RH  028%=      5-min Rain = 0
KJTS 201940Z 19008KT 38/14 A2975 RMK A01 T03760144  RH  026%=      5-min Rain = 0
KJTS 201945Z 18009KT 38/14 A2975 RMK A01 T03780139  RH  025%=      5-min Rain = 0
KJTS 201950Z 19008KT 38/14 A2975 RMK A01 T03800144  RH  026%=      5-min Rain = 0
KJTS 201955Z 18010KT 38/12 A2974 RMK A01 T03790124  RH  023%=      5-min Rain = 0
KJTS 202000Z 18010KT 38/13 A2974 RMK A01 T03790129  RH  023%=      5-min Rain = 0
KJTS 202005Z 19011G16KT 38/12 A2974 RMK A01 T03810120  RH  022%=      5-min Rain = 0
KJTS 202010Z 18010KT 38/12 A2974 RMK A01 T03810122  RH  022%=      5-min Rain = 0
KJTS 202015Z 18011KT 38/12 A2974 RMK A01 T03820117  RH  021%=      5-min Rain = 0
KJTS 202020Z 18009KT 38/13 A2974 RMK A01 T03820126  RH  023%=      5-min Rain = 0
KJTS 202025Z 19011G16KT 39/11 A2974 RMK A01 T03850106  RH  020%=      5-min Rain = 0
KJTS 202030Z 19009KT 38/11 A2973 RMK A01 T03840112  RH  020%=      5-min Rain = 0
KJTS 202035Z 17010KT 38/13 A2973 RMK A01 T03830130  RH  023%=      5-min Rain = 0
KJTS 202040Z 18010KT 38/13 A2973 RMK A01 T03840129  RH  023%=      5-min Rain = 0
KJTS 202045Z 18010KT 39/10 A2973 RMK A01 T03850101  RH  019%=      5-min Rain = 0
KJTS 202050Z 18008KT 39/12 A2973 RMK A01 T03870117  RH  021%=      5-min Rain = 0
KJTS 202055Z 18009KT 39/11 A2973 RMK A01 T03880112  RH  020%=      5-min Rain = 0
KJTS 202100Z 18009KT 39/11 A2972 RMK A01 T03880106  RH  019%=      5-min Rain = 0
KJTS 202105Z 18009KT 39/10 A2972 RMK A01 T03880098  RH  018%=      5-min Rain = 0
KJTS 202110Z 17009G14KT 39/10 A2972 RMK A01 T03890103  RH  019%=      5-min Rain = 0
KJTS 202115Z 17009G14KT 39/11 A2972 RMK A01 T03870109  RH  020%=      5-min Rain = 0
KJTS 202120Z 18010KT 39/10 A2972 RMK A01 T03880104  RH  019%=      5-min Rain = 0
KJTS 202125Z 18007KT 39/12 A2972 RMK A01 T03890119  RH  021%=      5-min Rain = 0
KJTS 202130Z 18008G13KT 39/11 A2971 RMK A01 T03890112  RH  020%=      5-min Rain = 0
KJTS 202135Z 19010KT 39/10 A2971 RMK A01 T03880104  RH  019%=      5-min Rain = 0
KJTS 202140Z 18009KT 39/11 A2971 RMK A01 T03890110  RH  020%=      5-min Rain = 0
KJTS 202145Z 18010KT 39/10 A2971 RMK A01 T03870102  RH  019%=      5-min Rain = 0
KJTS 202150Z 18010KT 39/10 A2971 RMK A01 T03870098  RH  018%=      5-min Rain = 0
KJTS 202155Z 18009KT 39/11 A2971 RMK A01 T03870107  RH  019%=      5-min Rain = 0
KJTS 202200Z 17009KT 39/11 A2971 RMK A01 T03870107  RH  019%=      5-min Rain = 0
KJTS 202205Z 17008KT 39/11 A2971 RMK A01 T03870113  RH  020%=      5-min Rain = 0
KJTS 202210Z 17008KT 38/12 A2971 RMK A01 T03840117  RH  021%=      5-min Rain = 0
KJTS 202215Z 16009KT 38/11 A297 RMK A01 T03840108  RH  020%=      5-min Rain = 0
KJTS 202220Z 16008KT 38/12 A2971 RMK A01 T03840118  RH  021%=      5-min Rain = 0
KJTS 202225Z 16007KT 38/13 A297 RMK A01 T03830129  RH  023%=      5-min Rain = 0
KJTS 202230Z 16007KT 38/12 A297 RMK A01 T03830123  RH  022%=      5-min Rain = 0
KJTS 202235Z 16007KT 38/13 A297 RMK A01 T03810125  RH  023%=      5-min Rain = 0
KJTS 202240Z 15007KT 38/13 A297 RMK A01 T03810133  RH  024%=      5-min Rain = 0
KJTS 202245Z 15008KT 38/12 A297 RMK A01 T03800120  RH  022%=      5-min Rain = 0
KJTS 202250Z 15007KT 38/13 A297 RMK A01 T03770131  RH  024%=      5-min Rain = 0
KJTS 202255Z 15007KT 38/13 A2969 RMK A01 T03760134  RH  025%=      5-min Rain = 0
KJTS 202300Z 15007KT 38/15 A2969 RMK A01 T03760147  RH  027%=      5-min Rain = 0
KJTS 202305Z 15007KT 38/15 A2969 RMK A01 T03750149  RH  027%=      5-min Rain = 0
KJTS 202310Z 15006KT 37/16 A2969 RMK A01 T03740158  RH  029%=      5-min Rain = 0
KJTS 202315Z 15006KT 37/16 A2969 RMK A01 T03740164  RH  030%=      5-min Rain = 0
KJTS 202320Z 15007KT 37/15 A2969 RMK A01 T03720154  RH  029%=      5-min Rain = 0
KJTS 202325Z 15007KT 37/15 A2968 RMK A01 T03700154  RH  029%=      5-min Rain = 0
KJTS 202330Z 15006KT 37/16 A2968 RMK A01 T03680157  RH  030%=      5-min Rain = 0
KJTS 202335Z 15006KT 37/16 A2968 RMK A01 T03660161  RH  031%=      5-min Rain = 0
KJTS 202340Z 16007KT 36/15 A2968 RMK A01 T03640154  RH  030%=      5-min Rain = 0
KJTS 202345Z 16007KT 36/15 A2968 RMK A01 T03630150  RH  030%=      5-min Rain = 0
KJTS 202350Z 16007KT 36/15 A2968 RMK A01 T03620148  RH  029%=      5-min Rain = 0
KJTS 202355Z 15006KT 36/16 A2968 RMK A01 T03590159  RH  032%=      5-min Rain = 0
KJTS 210000Z 15006KT 36/17 A2968 RMK A01 T03570165  RH  034%=      5-min Rain = 0
KJTS 210005Z 15007KT 36/16 A2968 RMK A01 T03560163  RH  033%=      5-min Rain = 0
KJTS 210010Z 15007KT 35/16 A2968 RMK A01 T03540161  RH  033%=      5-min Rain = 0
KJTS 210015Z 15007KT 35/17 A2968 RMK A01 T03510165  RH  035%=      5-min Rain = 0
KJTS 210020Z 15006KT 35/17 A2968 RMK A01 T03490166  RH  035%=      5-min Rain = 0
KJTS 210025Z 15007KT 35/16 A2968 RMK A01 T03470164  RH  035%=      5-min Rain = 0
KJTS 210030Z 15007KT 34/16 A2968 RMK A01 T03440163  RH  036%=      5-min Rain = 0
KJTS 210035Z 14007KT 34/16 A2968 RMK A01 T03420159  RH  035%=      5-min Rain = 0
KJTS 210040Z 14007KT 34/16 A2968 RMK A01 T03380155  RH  035%=      5-min Rain = 0
KJTS 210045Z 14008KT 34/15 A2967 RMK A01 T03360151  RH  035%=      5-min Rain = 0
KJTS 210050Z 14007KT 33/15 A2967 RMK A01 T03330152  RH  035%=      5-min Rain = 0
KJTS 210055Z 13007KT 33/15 A2967 RMK A01 T03290154  RH  036%=      5-min Rain = 0
KJTS 210100Z 13007KT 33/16 A2967 RMK A01 T03260155  RH  037%=      5-min Rain = 0
KJTS 210105Z 13008KT 32/15 A2967 RMK A01 T03240152  RH  037%=      5-min Rain = 0
KJTS 210110Z 13008KT 32/15 A2967 RMK A01 T03200153  RH  038%=      5-min Rain = 0
KJTS 210115Z 13008KT 32/15 A2967 RMK A01 T03150150  RH  039%=      5-min Rain = 0
KJTS 210120Z 12008KT 31/15 A2967 RMK A01 T03110150  RH  039%=      5-min Rain = 0
KJTS 210125Z 12009KT 31/15 A2967 RMK A01 T03070146  RH  039%=      5-min Rain = 0
KJTS 210130Z 12009KT 31/14 A2967 RMK A01 T03060144  RH  039%=      5-min Rain = 0
KJTS 210135Z 12009KT 31/15 A2967 RMK A01 T03070150  RH  040%=      5-min Rain = 0
KJTS 210140Z 12010KT 31/16 A2967 RMK A01 T03090157  RH  042%=      5-min Rain = 0
KJTS 210145Z 12009KT 31/16 A2967 RMK A01 T03050161  RH  044%=      5-min Rain = 0
KJTS 210150Z 13010KT 31/16 A2967 RMK A01 T03060164  RH  045%=      5-min Rain = 0
KJTS 210155Z 13010KT 31/17 A2968 RMK A01 T03050167  RH  046%=      5-min Rain = 0
KJTS 210200Z 13011KT 30/17 A2967 RMK A01 T03000170  RH  048%=      5-min Rain = 0
KJTS 210205Z 13010KT 30/17 A2968 RMK A01 T02980173  RH  050%=      5-min Rain = 0
KJTS 210210Z 13011KT 30/18 A2968 RMK A01 T02960175  RH  051%=      5-min Rain = 0
KJTS 210215Z 13010KT 30/18 A2968 RMK A01 T02950177  RH  052%=      5-min Rain = 0
KJTS 210220Z 14009KT 29/18 A2968 RMK A01 T02920179  RH  053%=      5-min Rain = 0
KJTS 210225Z 13009KT 29/18 A2968 RMK A01 T02910180  RH  054%=      5-min Rain = 0
KJTS 210230Z 13010KT 29/18 A2968 RMK A01 T02900181  RH  055%=      5-min Rain = 0
KJTS 210235Z 13011KT 29/18 A2968 RMK A01 T02900181  RH  054%=      5-min Rain = 0
KJTS 210240Z 13011KT 29/18 A2969 RMK A01 T02890181  RH  055%=      5-min Rain = 0
KJTS 210245Z 13011G16KT 29/18 A2969 RMK A01 T02890180  RH  054%=      5-min Rain = 0
KJTS 210250Z 14010KT 29/18 A2969 RMK A01 T02900177  RH  053%=      5-min Rain = 0
KJTS 210255Z 14010KT 29/17 A2969 RMK A01 T02900174  RH  052%=      5-min Rain = 0
KJTS 210300Z 14010KT 29/17 A2969 RMK A01 T02930171  RH  051%=      5-min Rain = 0
KJTS 210305Z 14010KT 29/17 A2969 RMK A01 T02900171  RH  051%=      5-min Rain = 0
KJTS 210310Z 14009KT 29/17 A297 RMK A01 T02890169  RH  051%=      5-min Rain = 0
KJTS 210315Z 14009KT 29/17 A297 RMK A01 T02870168  RH  051%=      5-min Rain = 0
KJTS 210320Z 14009KT 29/17 A297 RMK A01 T02860166  RH  051%=      5-min Rain = 0
KJTS 210325Z 15009KT 29/17 A2971 RMK A01 T02860166  RH  051%=      5-min Rain = 0
KJTS 210330Z 15009KT 29/17 A2971 RMK A01 T02850166  RH  051%=      5-min Rain = 0
KJTS 210335Z 15010KT 29/16 A2971 RMK A01 T02860164  RH  050%=      5-min Rain = 0
KJTS 210340Z 15010KT 29/16 A2972 RMK A01 T02860163  RH  050%=      5-min Rain = 0
KJTS 210345Z 14011KT 29/16 A2972 RMK A01 T02860163  RH  050%=      5-min Rain = 0
KJTS 210350Z 15011KT 29/16 A2971 RMK A01 T02850164  RH  050%=      5-min Rain = 0
KJTS 210355Z 15011KT 29/16 A2972 RMK A01 T02890163  RH  049%=      5-min Rain = 0
KJTS 210400Z 15010G17KT 29/16 A2972 RMK A01 T02920163  RH  048%=      5-min Rain = 0
KJTS 210405Z 16007KT 29/17 A2972 RMK A01 T02870165  RH  050%=      5-min Rain = 0
KJTS 210410Z 16008KT 28/17 A2972 RMK A01 T02810166  RH  052%=      5-min Rain = 0
KJTS 210415Z 15009KT 28/17 A2972 RMK A01 T02780165  RH  053%=      5-min Rain = 0
KJTS 210420Z 16009KT 28/16 A2972 RMK A01 T02800164  RH  052%=      5-min Rain = 0
KJTS 210425Z 16009KT 28/16 A2973 RMK A01 T02820164  RH  051%=      5-min Rain = 0
KJTS 210430Z 16009KT 28/17 A2973 RMK A01 T02810165  RH  052%=      5-min Rain = 0
KJTS 210435Z 16009KT 28/17 A2973 RMK A01 T02790165  RH  052%=      5-min Rain = 0
KJTS 210440Z 16008KT 28/17 A2973 RMK A01 T02780165  RH  053%=      5-min Rain = 0
KJTS 210445Z 16009KT 28/17 A2973 RMK A01 T02780165  RH  053%=      5-min Rain = 0
KJTS 210450Z 17009KT 28/17 A2973 RMK A01 T02780165  RH  052%=      5-min Rain = 0
KJTS 210455Z 17010KT 28/17 A2973 RMK A01 T02790165  RH  052%=      5-min Rain = 0

Page generated in 0.0097 seconds.